Jonni Ritscher — A8JT7 — position and weather

sailwx.info

Track history (hours):
 
Tides and Currents Weather Stations Pressure Air Temp Water Temp Dewpoint Dewpoint Depression Visibility Wind Speed Wind Dir Waves Ship Positions

Jonni Ritscher

Last reported at 2017-Mar-24 05:04 UTC. Time now 2017-Mar-24 06:16 UTC.
Position N 59°59' E 027°02'.

Length 178 m; draft 10.8 m.

Type: Ship (hazmat cat A). MMSI: 636091136.

Date/timePositionNaut miles runAvg speedWind from/ knotsBaromVisibWave heightAir tempDewpointWater temp
2017-Mar-24 05:04N 59°59' E 027°02'1117.4
2017-Mar-24 04:27N 60°05' E 027°20'1517.2
2017-Mar-24 03:34N 60°12' E 027°48'1717.2
2017-Mar-24 02:33N 60°06' E 028°21'1716.9
2017-Mar-24 01:33N 60°03' E 028°54'1615.8
2017-Mar-24 00:33N 60°02' E 029°26'25 1.2
2017-Mar-23 04:31N 59°53' E 030°12'0 0.0
2017-Mar-23 03:33N 59°53' E 030°12'0 0.0
2017-Mar-23 02:33N 59°53' E 030°12'0 0.0
2017-Mar-23 01:32N 59°53' E 030°12'0 0.0
2017-Mar-23 00:32N 59°53' E 030°12'0 0.0
2017-Mar-22 23:31N 59°53' E 030°12'0 0.0
2017-Mar-22 22:31N 59°53' E 030°12'0 0.0
2017-Mar-22 21:33N 59°53' E 030°12'1 0.9
2017-Mar-22 20:30N 59°53' E 030°13'0 0.1
2017-Mar-22 19:33N 59°54' E 030°14'0 0.0
2017-Mar-22 18:32N 59°54' E 030°14'0 0.0
2017-Mar-22 17:32N 59°54' E 030°14'0 0.0
2017-Mar-22 16:32N 59°53' E 030°14'0 0.0
2017-Mar-22 15:31N 59°54' E 030°14'0 0.0
2017-Mar-22 14:33N 59°54' E 030°14'0 0.0
2017-Mar-22 13:33N 59°54' E 030°14'0 0.0
2017-Mar-22 12:33N 59°54' E 030°14'0 0.0
2017-Mar-22 11:32N 59°54' E 030°14'0 0.0
2017-Mar-22 10:23N 59°54' E 030°14'0 0.0
2017-Mar-22 09:31N 59°54' E 030°14'0 0.0
2017-Mar-22 08:31N 59°54' E 030°14'0 0.0
2017-Mar-22 07:33N 59°54' E 030°14'0 0.0
2017-Mar-22 06:33N 59°54' E 030°14'0 0.0
2017-Mar-22 05:33N 59°54' E 030°14'0 0.0
2017-Mar-22 04:32N 59°53' E 030°14'0 0.0
2017-Mar-22 03:32N 59°54' E 030°14'0 0.0
2017-Mar-22 02:31N 59°54' E 030°14'0 0.0
2017-Mar-22 01:31N 59°54' E 030°14'0 0.0
2017-Mar-22 00:33N 59°54' E 030°14'0 0.0
2017-Mar-21 23:33N 59°53' E 030°14'0 0.0
2017-Mar-21 22:33N 59°53' E 030°14'0 0.0
2017-Mar-21 21:32N 59°53' E 030°14'0 0.0
2017-Mar-21 20:32N 59°54' E 030°14'0 0.0
2017-Mar-21 19:31N 59°53' E 030°14'0 0.0
2017-Mar-21 18:31N 59°54' E 030°14'0 0.0
2017-Mar-21 17:33N 59°54' E 030°14'0 0.0
2017-Mar-21 16:33N 59°54' E 030°14'3 3.2
2017-Mar-21 15:33N 59°54' E 030°07'10 9.9
2017-Mar-21 14:33N 59°58' E 029°49'15 7.2
2017-Mar-21 12:32N 60°02' E 029°21'6 6.0
2017-Mar-21 11:29N 60°02' E 029°08'1010.9
2017-Mar-21 10:33N 60°02' E 028°48'1515.5
2017-Mar-21 09:33N 60°06' E 028°18'1615.7
2017-Mar-21 08:33N 60°10' E 027°48'1716.1
2017-Mar-21 07:30N 60°02' E 027°18'1515.3
2017-Mar-21 06:30N 59°59' E 026°48'1516.0
2017-Mar-21 05:33N 59°56' E 026°18'37116.1
2017-Mar-20 06:29N 56°11' E 017°02'1617.4
2017-Mar-20 05:33N 56°01' E 016°39'1717.1
2017-Mar-20 04:33N 55°52' E 016°13'1717.1
2017-Mar-20 03:33N 55°44' E 015°46'1717.4
2017-Mar-20 02:33N 55°36' E 015°19'1817.6
2017-Mar-20 01:33N 55°27' E 014°52'1716.6
2017-Mar-20 00:33N 55°17' E 014°29'1717.3
2017-Mar-19 23:34N 55°03' E 014°10'1716.7
2017-Mar-19 22:32N 54°57' E 013°43'2117.0
2017-Mar-19 21:17N 54°50' E 013°08'1216.8
2017-Mar-19 20:33N 54°46' E 012°48'1717.4
2017-Mar-19 19:33N 54°37' E 012°22'1615.8
2017-Mar-19 18:34N 54°25' E 012°05'1716.9
2017-Mar-19 17:33N 54°27' E 011°36'1717.2
2017-Mar-19 16:34N 54°35' E 011°10'1515.4
2017-Mar-19 15:34N 54°42' E 010°46'1615.7
2017-Mar-19 14:33N 54°57' E 010°55'1515.1
2017-Mar-19 13:34N 55°11' E 011°03'7714.6
2017-Mar-19 08:17N 56°27' E 011°32'1316.7
2017-Mar-19 07:29N 56°38' E 011°45'1515.7
2017-Mar-19 06:33N 56°53' E 011°47'1717.3
2017-Mar-19 05:33N 57°09' E 011°36'1817.8
2017-Mar-19 04:33N 57°26' E 011°25'1717.2
2017-Mar-19 03:33N 57°38' E 011°03'1717.2
2017-Mar-19 02:33N 57°48' E 010°36'1717.4
2017-Mar-19 01:33N 57°45' E 010°04'3517.6
2017-Mar-18 23:33N 57°26' E 009°08'1817.6
2017-Mar-18 22:32N 57°17' E 008°41'30216.8
2017-Mar-18 04:33N 52°55' E 004°17'2618.0
2017-Mar-18 03:07N 52°33' E 003°56'1217.4
2017-Mar-18 02:26N 52°21' E 003°52'1516.8
2017-Mar-18 01:34N 52°06' E 003°55'1010.1
2017-Mar-18 00:34N 51°58' E 004°05'2 1.6
2017-Mar-17 23:31N 51°58' E 004°03'0 0.0
2017-Mar-17 22:30N 51°58' E 004°03'0 0.0
2017-Mar-17 21:33N 51°58' E 004°03'0 0.0
2017-Mar-17 20:33N 51°58' E 004°03'0 0.0
2017-Mar-17 19:33N 51°58' E 004°03'0 0.0
2017-Mar-17 18:32N 51°58' E 004°03'0 0.0
2017-Mar-17 17:32N 51°58' E 004°03'0 0.0
2017-Mar-17 16:31N 51°58' E 004°03'0 0.0
2017-Mar-17 15:31N 51°58' E 004°03'0 0.0
2017-Mar-17 14:33N 51°58' E 004°03'0 0.0
2017-Mar-17 13:33N 51°58' E 004°03'0 0.0
2017-Mar-17 12:32N 51°58' E 004°03'0 0.0
2017-Mar-17 11:32N 51°58' E 004°03'0 0.0
2017-Mar-17 10:32N 51°58' E 004°03'2 2.0
2017-Mar-17 09:34N 51°59' E 004°00'1 1.3
2017-Mar-17 08:32N 51°57' E 004°00'0 0.0
2017-Mar-17 07:28N 51°57' E 004°00'0 0.0
2017-Mar-17 06:31N 51°57' E 004°00'0 0.0
2017-Mar-17 05:33N 51°57' E 004°00'0 0.0
2017-Mar-17 04:30N 51°57' E 004°00'0 0.0
2017-Mar-17 03:32N 51°57' E 004°00'0 0.0
2017-Mar-17 02:23N 51°57' E 004°00'0 0.0
2017-Mar-17 01:29N 51°57' E 004°00'0 0.0
2017-Mar-17 00:22N 51°57' E 004°00'0 0.0
2017-Mar-16 23:25N 51°57' E 004°00'0 0.0
2017-Mar-16 22:33N 51°57' E 004°00'0 0.0
2017-Mar-16 21:27N 51°57' E 004°00'0 0.0
2017-Mar-16 20:29N 51°57' E 004°00'0 0.0
2017-Mar-16 19:32N 51°57' E 004°00'0 0.0
2017-Mar-16 18:32N 51°57' E 004°00'0 0.0
2017-Mar-16 17:32N 51°57' E 004°00'0 0.0
2017-Mar-16 16:25N 51°57' E 004°00'0 0.0
2017-Mar-16 15:25N 51°57' E 004°00'0 0.0
2017-Mar-16 14:30N 51°57' E 004°00'0 0.0
2017-Mar-16 13:32N 51°57' E 004°00'0 0.0
2017-Mar-16 12:32N 51°57' E 004°00'0 0.0
2017-Mar-16 11:32N 51°57' E 004°00'0 0.0
2017-Mar-16 10:31N 51°57' E 004°00'0 0.0
2017-Mar-16 09:31N 51°57' E 004°00'0 0.0
2017-Mar-16 08:33N 51°57' E 004°00'3 3.3
2017-Mar-16 07:33N 51°58' E 004°05'1211.9
2017-Mar-16 06:34N 52°02' E 003°47'1312.9
2017-Mar-16 05:33N 52°15' E 003°47'1211.8
2017-Mar-16 04:33N 52°27' E 003°50'1111.4
2017-Mar-16 03:34N 52°38' E 003°54'1211.7
2017-Mar-16 02:32N 52°50' E 003°58'1211.2
2017-Mar-16 01:26N 53°01' E 004°07'1112.2
2017-Mar-16 00:33N 53°08' E 004°20'1211.9
2017-Mar-15 23:33N 53°18' E 004°29'1211.8
2017-Mar-15 22:33N 53°30' E 004°35'1311.5
2017-Mar-15 21:24N 53°42' E 004°43'1211.2
2017-Mar-15 20:20N 53°53' E 004°51'11812.1
2017-Mar-15 10:33N 55°35' E 006°33'18113.8
2017-Mar-14 21:26N 57°50' E 010°15'1415.1
2017-Mar-14 20:33N 57°50' E 010°40'1515.2
2017-Mar-14 19:33N 57°40' E 011°02'1616.3
2017-Mar-14 18:33N 57°30' E 011°25'1716.9
2017-Mar-14 17:33N 57°14' E 011°36'11514.3
2017-Mar-14 09:33N 55°21' E 011°03'1010.5
2017-Mar-14 08:33N 55°10' E 011°01'1313.5
2017-Mar-14 07:33N 54°57' E 010°55'1615.5
2017-Mar-14 06:33N 54°42' E 010°47'1313.2
2017-Mar-14 05:34N 54°36' E 011°07'  
Track history (hours):
 
Tides and Currents Weather Stations Pressure Air Temp Water Temp Dewpoint Dewpoint Depression Visibility Wind Speed Wind Dir Waves Ship Positions

Jonni Ritscher

Last reported at 2017-Mar-24 05:04 UTC. Time now 2017-Mar-24 06:16 UTC.
Position N 59°59' E 027°02'.

Length 178 m; draft 10.8 m.

Type: Ship (hazmat cat A). MMSI: 636091136.

Date/timePositionNaut miles runAvg speedWind from/ knotsBaromVisibWave heightAir tempDewpointWater temp
2017-Mar-24 05:04N 59°59' E 027°02'1117.4
2017-Mar-24 04:27N 60°05' E 027°20'1517.2
2017-Mar-24 03:34N 60°12' E 027°48'1717.2
2017-Mar-24 02:33N 60°06' E 028°21'1716.9
2017-Mar-24 01:33N 60°03' E 028°54'1615.8
2017-Mar-24 00:33N 60°02' E 029°26'25 1.2
2017-Mar-23 04:31N 59°53' E 030°12'0 0.0
2017-Mar-23 03:33N 59°53' E 030°12'0 0.0
2017-Mar-23 02:33N 59°53' E 030°12'0 0.0
2017-Mar-23 01:32N 59°53' E 030°12'0 0.0
2017-Mar-23 00:32N 59°53' E 030°12'0 0.0
2017-Mar-22 23:31N 59°53' E 030°12'0 0.0
2017-Mar-22 22:31N 59°53' E 030°12'0 0.0
2017-Mar-22 21:33N 59°53' E 030°12'1 0.9
2017-Mar-22 20:30N 59°53' E 030°13'0 0.1
2017-Mar-22 19:33N 59°54' E 030°14'0 0.0
2017-Mar-22 18:32N 59°54' E 030°14'0 0.0
2017-Mar-22 17:32N 59°54' E 030°14'0 0.0
2017-Mar-22 16:32N 59°53' E 030°14'0 0.0
2017-Mar-22 15:31N 59°54' E 030°14'0 0.0
2017-Mar-22 14:33N 59°54' E 030°14'0 0.0
2017-Mar-22 13:33N 59°54' E 030°14'0 0.0
2017-Mar-22 12:33N 59°54' E 030°14'0 0.0
2017-Mar-22 11:32N 59°54' E 030°14'0 0.0
2017-Mar-22 10:23N 59°54' E 030°14'0 0.0
2017-Mar-22 09:31N 59°54' E 030°14'0 0.0
2017-Mar-22 08:31N 59°54' E 030°14'0 0.0
2017-Mar-22 07:33N 59°54' E 030°14'0 0.0
2017-Mar-22 06:33N 59°54' E 030°14'0 0.0
2017-Mar-22 05:33N 59°54' E 030°14'0 0.0
2017-Mar-22 04:32N 59°53' E 030°14'0 0.0
2017-Mar-22 03:32N 59°54' E 030°14'0 0.0
2017-Mar-22 02:31N 59°54' E 030°14'0 0.0
2017-Mar-22 01:31N 59°54' E 030°14'0 0.0
2017-Mar-22 00:33N 59°54' E 030°14'0 0.0
2017-Mar-21 23:33N 59°53' E 030°14'0 0.0
2017-Mar-21 22:33N 59°53' E 030°14'0 0.0
2017-Mar-21 21:32N 59°53' E 030°14'0 0.0
2017-Mar-21 20:32N 59°54' E 030°14'0 0.0
2017-Mar-21 19:31N 59°53' E 030°14'0 0.0
2017-Mar-21 18:31N 59°54' E 030°14'0 0.0
2017-Mar-21 17:33N 59°54' E 030°14'0 0.0
2017-Mar-21 16:33N 59°54' E 030°14'3 3.2
2017-Mar-21 15:33N 59°54' E 030°07'10 9.9
2017-Mar-21 14:33N 59°58' E 029°49'15 7.2
2017-Mar-21 12:32N 60°02' E 029°21'6 6.0
2017-Mar-21 11:29N 60°02' E 029°08'1010.9
2017-Mar-21 10:33N 60°02' E 028°48'1515.5
2017-Mar-21 09:33N 60°06' E 028°18'1615.7
2017-Mar-21 08:33N 60°10' E 027°48'1716.1
2017-Mar-21 07:30N 60°02' E 027°18'1515.3
2017-Mar-21 06:30N 59°59' E 026°48'1516.0
2017-Mar-21 05:33N 59°56' E 026°18'37116.1
2017-Mar-20 06:29N 56°11' E 017°02'1617.4
2017-Mar-20 05:33N 56°01' E 016°39'1717.1
2017-Mar-20 04:33N 55°52' E 016°13'1717.1
2017-Mar-20 03:33N 55°44' E 015°46'1717.4
2017-Mar-20 02:33N 55°36' E 015°19'1817.6
2017-Mar-20 01:33N 55°27' E 014°52'1716.6
2017-Mar-20 00:33N 55°17' E 014°29'1717.3
2017-Mar-19 23:34N 55°03' E 014°10'1716.7
2017-Mar-19 22:32N 54°57' E 013°43'2117.0
2017-Mar-19 21:17N 54°50' E 013°08'1216.8
2017-Mar-19 20:33N 54°46' E 012°48'1717.4
2017-Mar-19 19:33N 54°37' E 012°22'1615.8
2017-Mar-19 18:34N 54°25' E 012°05'1716.9
2017-Mar-19 17:33N 54°27' E 011°36'1717.2
2017-Mar-19 16:34N 54°35' E 011°10'1515.4
2017-Mar-19 15:34N 54°42' E 010°46'1615.7
2017-Mar-19 14:33N 54°57' E 010°55'1515.1
2017-Mar-19 13:34N 55°11' E 011°03'7714.6
2017-Mar-19 08:17N 56°27' E 011°32'1316.7
2017-Mar-19 07:29N 56°38' E 011°45'1515.7
2017-Mar-19 06:33N 56°53' E 011°47'1717.3
2017-Mar-19 05:33N 57°09' E 011°36'1817.8
2017-Mar-19 04:33N 57°26' E 011°25'1717.2
2017-Mar-19 03:33N 57°38' E 011°03'1717.2
2017-Mar-19 02:33N 57°48' E 010°36'1717.4
2017-Mar-19 01:33N 57°45' E 010°04'3517.6
2017-Mar-18 23:33N 57°26' E 009°08'1817.6
2017-Mar-18 22:32N 57°17' E 008°41'30216.8
2017-Mar-18 04:33N 52°55' E 004°17'2618.0
2017-Mar-18 03:07N 52°33' E 003°56'1217.4
2017-Mar-18 02:26N 52°21' E 003°52'1516.8
2017-Mar-18 01:34N 52°06' E 003°55'1010.1
2017-Mar-18 00:34N 51°58' E 004°05'2 1.6
2017-Mar-17 23:31N 51°58' E 004°03'0 0.0
2017-Mar-17 22:30N 51°58' E 004°03'0 0.0
2017-Mar-17 21:33N 51°58' E 004°03'0 0.0
2017-Mar-17 20:33N 51°58' E 004°03'0 0.0
2017-Mar-17 19:33N 51°58' E 004°03'0 0.0
2017-Mar-17 18:32N 51°58' E 004°03'0 0.0
2017-Mar-17 17:32N 51°58' E 004°03'0 0.0
2017-Mar-17 16:31N 51°58' E 004°03'0 0.0
2017-Mar-17 15:31N 51°58' E 004°03'0 0.0
2017-Mar-17 14:33N 51°58' E 004°03'0 0.0
2017-Mar-17 13:33N 51°58' E 004°03'0 0.0
2017-Mar-17 12:32N 51°58' E 004°03'0 0.0
2017-Mar-17 11:32N 51°58' E 004°03'0 0.0
2017-Mar-17 10:32N 51°58' E 004°03'2 2.0
2017-Mar-17 09:34N 51°59' E 004°00'1 1.3
2017-Mar-17 08:32N 51°57' E 004°00'0 0.0
2017-Mar-17 07:28N 51°57' E 004°00'0 0.0
2017-Mar-17 06:31N 51°57' E 004°00'0 0.0
2017-Mar-17 05:33N 51°57' E 004°00'0 0.0
2017-Mar-17 04:30N 51°57' E 004°00'0 0.0
2017-Mar-17 03:32N 51°57' E 004°00'0 0.0
2017-Mar-17 02:23N 51°57' E 004°00'0 0.0
2017-Mar-17 01:29N 51°57' E 004°00'0 0.0
2017-Mar-17 00:22N 51°57' E 004°00'0 0.0
2017-Mar-16 23:25N 51°57' E 004°00'0 0.0
2017-Mar-16 22:33N 51°57' E 004°00'0 0.0
2017-Mar-16 21:27N 51°57' E 004°00'0 0.0
2017-Mar-16 20:29N 51°57' E 004°00'0 0.0
2017-Mar-16 19:32N 51°57' E 004°00'0 0.0
2017-Mar-16 18:32N 51°57' E 004°00'0 0.0
2017-Mar-16 17:32N 51°57' E 004°00'0 0.0
2017-Mar-16 16:25N 51°57' E 004°00'0 0.0
2017-Mar-16 15:25N 51°57' E 004°00'0 0.0
2017-Mar-16 14:30N 51°57' E 004°00'0 0.0
2017-Mar-16 13:32N 51°57' E 004°00'0 0.0
2017-Mar-16 12:32N 51°57' E 004°00'0 0.0
2017-Mar-16 11:32N 51°57' E 004°00'0 0.0
2017-Mar-16 10:31N 51°57' E 004°00'0 0.0
2017-Mar-16 09:31N 51°57' E 004°00'0 0.0
2017-Mar-16 08:33N 51°57' E 004°00'3 3.3
2017-Mar-16 07:33N 51°58' E 004°05'1211.9
2017-Mar-16 06:34N 52°02' E 003°47'1312.9
2017-Mar-16 05:33N 52°15' E 003°47'1211.8
2017-Mar-16 04:33N 52°27' E 003°50'1111.4
2017-Mar-16 03:34N 52°38' E 003°54'1211.7
2017-Mar-16 02:32N 52°50' E 003°58'1211.2
2017-Mar-16 01:26N 53°01' E 004°07'1112.2
2017-Mar-16 00:33N 53°08' E 004°20'1211.9
2017-Mar-15 23:33N 53°18' E 004°29'1211.8
2017-Mar-15 22:33N 53°30' E 004°35'1311.5
2017-Mar-15 21:24N 53°42' E 004°43'1211.2
2017-Mar-15 20:20N 53°53' E 004°51'11812.1
2017-Mar-15 10:33N 55°35' E 006°33'18113.8
2017-Mar-14 21:26N 57°50' E 010°15'1415.1
2017-Mar-14 20:33N 57°50' E 010°40'1515.2
2017-Mar-14 19:33N 57°40' E 011°02'1616.3
2017-Mar-14 18:33N 57°30' E 011°25'1716.9
2017-Mar-14 17:33N 57°14' E 011°36'11514.3
2017-Mar-14 09:33N 55°21' E 011°03'1010.5
2017-Mar-14 08:33N 55°10' E 011°01'1313.5
2017-Mar-14 07:33N 54°57' E 010°55'1615.5
2017-Mar-14 06:33N 54°42' E 010°47'1313.2
2017-Mar-14 05:34N 54°36' E 011°07'  

Dump ship's entire track history